sensor_id;sensor_type;location;lat;lon;timestamp;pressure;altitude;pressure_sealevel;temperature;humidity
23229;BME280;11783;50.350;6.576;2024-02-28T00:01:37;96444.50;;;2.17;100.00
23229;BME280;11783;50.350;6.576;2024-02-28T00:04:03;96454.69;;;2.05;100.00
23229;BME280;11783;50.350;6.576;2024-02-28T00:06:28;96450.16;;;1.99;100.00
23229;BME280;11783;50.350;6.576;2024-02-28T00:08:53;96455.31;;;2.07;100.00
23229;BME280;11783;50.350;6.576;2024-02-28T00:11:20;96456.47;;;2.04;100.00
23229;BME280;11783;50.350;6.576;2024-02-28T00:13:46;96463.78;;;2.09;100.00
23229;BME280;11783;50.350;6.576;2024-02-28T00:16:11;96465.16;;;2.05;100.00
23229;BME280;11783;50.350;6.576;2024-02-28T00:18:37;96460.94;;;1.89;100.00
23229;BME280;11783;50.350;6.576;2024-02-28T00:21:02;96459.66;;;1.85;100.00
23229;BME280;11783;50.350;6.576;2024-02-28T00:23:29;96459.59;;;1.78;100.00
23229;BME280;11783;50.350;6.576;2024-02-28T00:25:54;96456.59;;;1.81;100.00
23229;BME280;11783;50.350;6.576;2024-02-28T00:28:20;96454.34;;;1.93;100.00
23229;BME280;11783;50.350;6.576;2024-02-28T00:30:46;96453.34;;;1.94;100.00
23229;BME280;11783;50.350;6.576;2024-02-28T00:33:11;96464.00;;;1.93;100.00
23229;BME280;11783;50.350;6.576;2024-02-28T00:35:36;96456.75;;;1.95;100.00
23229;BME280;11783;50.350;6.576;2024-02-28T00:38:02;96466.19;;;1.74;100.00
23229;BME280;11783;50.350;6.576;2024-02-28T00:40:28;96468.81;;;1.74;100.00
23229;BME280;11783;50.350;6.576;2024-02-28T00:42:57;96475.13;;;1.80;100.00
23229;BME280;11783;50.350;6.576;2024-02-28T00:45:22;96473.75;;;1.84;100.00
23229;BME280;11783;50.350;6.576;2024-02-28T00:47:48;96474.94;;;1.67;100.00
23229;BME280;11783;50.350;6.576;2024-02-28T00:50:13;96473.84;;;1.46;100.00
23229;BME280;11783;50.350;6.576;2024-02-28T00:52:40;96469.44;;;1.47;100.00
23229;BME280;11783;50.350;6.576;2024-02-28T00:55:05;96477.84;;;1.57;100.00
23229;BME280;11783;50.350;6.576;2024-02-28T00:57:31;96475.22;;;1.57;100.00
23229;BME280;11783;50.350;6.576;2024-02-28T00:59:57;96469.72;;;1.52;100.00
23229;BME280;11783;50.350;6.576;2024-02-28T01:02:22;96474.34;;;1.50;100.00
23229;BME280;11783;50.350;6.576;2024-02-28T01:04:48;96485.06;;;1.40;100.00
23229;BME280;11783;50.350;6.576;2024-02-28T01:07:13;96485.78;;;1.34;100.00
23229;BME280;11783;50.350;6.576;2024-02-28T01:09:38;96482.22;;;1.27;100.00
23229;BME280;11783;50.350;6.576;2024-02-28T01:12:04;96485.75;;;1.19;100.00
23229;BME280;11783;50.350;6.576;2024-02-28T01:14:29;96487.47;;;1.12;100.00
23229;BME280;11783;50.350;6.576;2024-02-28T01:16:55;96481.88;;;0.93;100.00
23229;BME280;11783;50.350;6.576;2024-02-28T01:19:20;96479.63;;;0.89;100.00
23229;BME280;11783;50.350;6.576;2024-02-28T01:21:46;96479.97;;;0.86;100.00
23229;BME280;11783;50.350;6.576;2024-02-28T01:24:11;96486.88;;;1.02;100.00
23229;BME280;11783;50.350;6.576;2024-02-28T01:26:36;96478.13;;;0.95;100.00
23229;BME280;11783;50.350;6.576;2024-02-28T01:29:02;96477.41;;;1.01;100.00
23229;BME280;11783;50.350;6.576;2024-02-28T01:31:28;96487.25;;;0.99;100.00
23229;BME280;11783;50.350;6.576;2024-02-28T01:33:53;96484.00;;;0.97;100.00
23229;BME280;11783;50.350;6.576;2024-02-28T01:36:19;96483.22;;;0.88;100.00
23229;BME280;11783;50.350;6.576;2024-02-28T01:38:44;96487.31;;;0.45;100.00
23229;BME280;11783;50.350;6.576;2024-02-28T01:41:09;96492.09;;;0.42;100.00
23229;BME280;11783;50.350;6.576;2024-02-28T01:43:35;96497.16;;;0.35;100.00
23229;BME280;11783;50.350;6.576;2024-02-28T01:46:01;96497.78;;;0.45;100.00
23229;BME280;11783;50.350;6.576;2024-02-28T01:48:29;96489.28;;;0.43;100.00
23229;BME280;11783;50.350;6.576;2024-02-28T01:50:55;96493.53;;;0.44;100.00
23229;BME280;11783;50.350;6.576;2024-02-28T01:53:20;96496.72;;;0.54;100.00
23229;BME280;11783;50.350;6.576;2024-02-28T01:55:47;96488.88;;;0.54;100.00
23229;BME280;11783;50.350;6.576;2024-02-28T01:58:12;96486.03;;;0.41;100.00
23229;BME280;11783;50.350;6.576;2024-02-28T02:00:38;96482.09;;;0.45;100.00
23229;BME280;11783;50.350;6.576;2024-02-28T02:03:04;96483.50;;;0.56;100.00
23229;BME280;11783;50.350;6.576;2024-02-28T02:05:30;96484.94;;;0.58;100.00
23229;BME280;11783;50.350;6.576;2024-02-28T02:07:59;96476.84;;;0.45;100.00
23229;BME280;11783;50.350;6.576;2024-02-28T02:10:28;96479.94;;;0.49;100.00
23229;BME280;11783;50.350;6.576;2024-02-28T02:12:53;96482.97;;;0.38;100.00
23229;BME280;11783;50.350;6.576;2024-02-28T02:15:19;96489.31;;;0.35;100.00
23229;BME280;11783;50.350;6.576;2024-02-28T02:17:44;96496.03;;;0.38;100.00
23229;BME280;11783;50.350;6.576;2024-02-28T02:20:11;96495.16;;;0.45;100.00
23229;BME280;11783;50.350;6.576;2024-02-28T02:22:39;96490.03;;;0.52;100.00
23229;BME280;11783;50.350;6.576;2024-02-28T02:25:05;96490.97;;;0.36;100.00
23229;BME280;11783;50.350;6.576;2024-02-28T02:27:31;96486.47;;;0.22;100.00
23229;BME280;11783;50.350;6.576;2024-02-28T02:29:56;96488.13;;;0.23;100.00
23229;BME280;11783;50.350;6.576;2024-02-28T02:32:22;96481.88;;;-0.07;100.00
23229;BME280;11783;50.350;6.576;2024-02-28T02:34:47;96479.97;;;-0.21;100.00
23229;BME280;11783;50.350;6.576;2024-02-28T02:37:13;96483.72;;;-0.16;100.00
23229;BME280;11783;50.350;6.576;2024-02-28T02:39:38;96486.13;;;-0.06;100.00
23229;BME280;11783;50.350;6.576;2024-02-28T02:42:03;96482.84;;;0.00;100.00
23229;BME280;11783;50.350;6.576;2024-02-28T02:44:29;96489.81;;;0.08;100.00
23229;BME280;11783;50.350;6.576;2024-02-28T02:46:54;96484.88;;;0.13;100.00
23229;BME280;11783;50.350;6.576;2024-02-28T02:49:20;96486.84;;;0.19;100.00
23229;BME280;11783;50.350;6.576;2024-02-28T02:51:45;96489.44;;;0.19;100.00
23229;BME280;11783;50.350;6.576;2024-02-28T02:54:11;96487.22;;;0.08;100.00
23229;BME280;11783;50.350;6.576;2024-02-28T02:56:36;96491.22;;;-0.13;100.00
23229;BME280;11783;50.350;6.576;2024-02-28T02:59:02;96479.31;;;-0.15;100.00
23229;BME280;11783;50.350;6.576;2024-02-28T03:01:27;96476.88;;;-0.17;100.00
23229;BME280;11783;50.350;6.576;2024-02-28T03:03:53;96486.63;;;-0.11;100.00
23229;BME280;11783;50.350;6.576;2024-02-28T03:06:19;96474.56;;;-0.12;100.00
23229;BME280;11783;50.350;6.576;2024-02-28T03:08:44;96471.78;;;-0.10;100.00
23229;BME280;11783;50.350;6.576;2024-02-28T03:11:10;96479.38;;;-0.01;100.00
23229;BME280;11783;50.350;6.576;2024-02-28T03:13:36;96481.25;;;-0.09;100.00
23229;BME280;11783;50.350;6.576;2024-02-28T03:16:03;96477.53;;;-0.23;100.00
23229;BME280;11783;50.350;6.576;2024-02-28T03:18:29;96478.69;;;-0.17;100.00
23229;BME280;11783;50.350;6.576;2024-02-28T03:20:54;96481.78;;;-0.22;100.00
23229;BME280;11783;50.350;6.576;2024-02-28T03:23:20;96476.41;;;-0.28;100.00
23229;BME280;11783;50.350;6.576;2024-02-28T03:25:45;96489.81;;;-0.32;100.00
23229;BME280;11783;50.350;6.576;2024-02-28T03:28:11;96494.09;;;-0.47;100.00
23229;BME280;11783;50.350;6.576;2024-02-28T03:30:36;96484.38;;;-0.77;100.00
23229;BME280;11783;50.350;6.576;2024-02-28T03:33:01;96495.47;;;-0.67;100.00
23229;BME280;11783;50.350;6.576;2024-02-28T03:35:27;96495.97;;;-0.72;100.00
23229;BME280;11783;50.350;6.576;2024-02-28T03:37:52;96502.78;;;-0.63;100.00
23229;BME280;11783;50.350;6.576;2024-02-28T03:40:18;96506.56;;;-0.65;100.00
23229;BME280;11783;50.350;6.576;2024-02-28T03:42:43;96509.53;;;-0.93;100.00
23229;BME280;11783;50.350;6.576;2024-02-28T03:45:08;96505.44;;;-0.79;100.00
23229;BME280;11783;50.350;6.576;2024-02-28T03:47:34;96506.41;;;-0.72;100.00
23229;BME280;11783;50.350;6.576;2024-02-28T03:49:59;96505.75;;;-0.66;100.00
23229;BME280;11783;50.350;6.576;2024-02-28T03:52:25;96506.38;;;-0.64;100.00
23229;BME280;11783;50.350;6.576;2024-02-28T03:54:50;96501.34;;;-0.65;100.00
23229;BME280;11783;50.350;6.576;2024-02-28T03:57:16;96501.03;;;-0.70;100.00
23229;BME280;11783;50.350;6.576;2024-02-28T03:59:41;96502.34;;;-0.74;100.00
23229;BME280;11783;50.350;6.576;2024-02-28T04:02:06;96505.75;;;-0.74;100.00
23229;BME280;11783;50.350;6.576;2024-02-28T04:04:32;96503.16;;;-0.74;100.00
23229;BME280;11783;50.350;6.576;2024-02-28T04:06:57;96505.75;;;-0.82;100.00
23229;BME280;11783;50.350;6.576;2024-02-28T04:09:22;96503.47;;;-0.77;100.00
23229;BME280;11783;50.350;6.576;2024-02-28T04:11:48;96512.44;;;-0.79;100.00
23229;BME280;11783;50.350;6.576;2024-02-28T04:14:14;96519.16;;;-1.09;100.00
23229;BME280;11783;50.350;6.576;2024-02-28T04:16:43;96523.72;;;-1.03;100.00
23229;BME280;11783;50.350;6.576;2024-02-28T04:19:10;96526.34;;;-1.11;100.00
23229;BME280;11783;50.350;6.576;2024-02-28T04:21:36;96534.00;;;-1.10;100.00
23229;BME280;11783;50.350;6.576;2024-02-28T04:24:01;96528.59;;;-1.00;100.00
23229;BME280;11783;50.350;6.576;2024-02-28T04:26:27;96541.66;;;-1.00;100.00
23229;BME280;11783;50.350;6.576;2024-02-28T04:28:52;96528.78;;;-1.02;100.00
23229;BME280;11783;50.350;6.576;2024-02-28T04:31:17;96527.44;;;-0.98;100.00
23229;BME280;11783;50.350;6.576;2024-02-28T04:33:43;96524.34;;;-0.93;100.00
23229;BME280;11783;50.350;6.576;2024-02-28T04:36:08;96527.44;;;-0.98;100.00
23229;BME280;11783;50.350;6.576;2024-02-28T04:38:34;96527.63;;;-0.99;100.00
23229;BME280;11783;50.350;6.576;2024-02-28T04:40:59;96527.63;;;-1.07;100.00
23229;BME280;11783;50.350;6.576;2024-02-28T04:43:24;96534.47;;;-1.06;100.00
23229;BME280;11783;50.350;6.576;2024-02-28T04:45:50;96542.63;;;-1.09;100.00
23229;BME280;11783;50.350;6.576;2024-02-28T04:48:15;96535.13;;;-1.20;100.00
23229;BME280;11783;50.350;6.576;2024-02-28T04:50:40;96532.81;;;-1.32;100.00
23229;BME280;11783;50.350;6.576;2024-02-28T04:53:06;96542.44;;;-1.16;100.00
23229;BME280;11783;50.350;6.576;2024-02-28T04:55:31;96551.28;;;-1.09;100.00
23229;BME280;11783;50.350;6.576;2024-02-28T04:57:56;96557.47;;;-1.10;100.00
23229;BME280;11783;50.350;6.576;2024-02-28T05:00:22;96565.28;;;-1.26;100.00
23229;BME280;11783;50.350;6.576;2024-02-28T05:02:47;96562.03;;;-1.28;100.00
23229;BME280;11783;50.350;6.576;2024-02-28T05:05:13;96579.78;;;-1.24;100.00
23229;BME280;11783;50.350;6.576;2024-02-28T05:07:38;96562.81;;;-1.19;100.00
23229;BME280;11783;50.350;6.576;2024-02-28T05:10:04;96561.19;;;-1.29;100.00
23229;BME280;11783;50.350;6.576;2024-02-28T05:12:30;96559.25;;;-1.27;100.00
23229;BME280;11783;50.350;6.576;2024-02-28T05:14:56;96569.97;;;-1.38;100.00
23229;BME280;11783;50.350;6.576;2024-02-28T05:17:21;96570.28;;;-1.33;100.00
23229;BME280;11783;50.350;6.576;2024-02-28T05:19:46;96564.13;;;-1.24;100.00
23229;BME280;11783;50.350;6.576;2024-02-28T05:22:12;96570.16;;;-1.23;100.00
23229;BME280;11783;50.350;6.576;2024-02-28T05:24:37;96580.44;;;-1.30;100.00
23229;BME280;11783;50.350;6.576;2024-02-28T05:27:03;96582.69;;;-1.35;100.00
23229;BME280;11783;50.350;6.576;2024-02-28T05:29:28;96583.66;;;-1.36;100.00
23229;BME280;11783;50.350;6.576;2024-02-28T05:31:54;96580.41;;;-1.46;100.00
23229;BME280;11783;50.350;6.576;2024-02-28T05:34:19;96583.78;;;-1.54;100.00
23229;BME280;11783;50.350;6.576;2024-02-28T05:36:45;96586.88;;;-1.50;100.00
23229;BME280;11783;50.350;6.576;2024-02-28T05:39:10;96587.56;;;-1.48;100.00
23229;BME280;11783;50.350;6.576;2024-02-28T05:41:36;96596.31;;;-1.49;100.00
23229;BME280;11783;50.350;6.576;2024-02-28T05:44:01;96597.78;;;-1.55;100.00
23229;BME280;11783;50.350;6.576;2024-02-28T05:46:26;96593.38;;;-1.54;100.00
23229;BME280;11783;50.350;6.576;2024-02-28T05:48:52;96593.38;;;-1.54;100.00
23229;BME280;11783;50.350;6.576;2024-02-28T05:51:17;96592.09;;;-1.58;100.00
23229;BME280;11783;50.350;6.576;2024-02-28T05:53:43;96595.97;;;-1.62;100.00
23229;BME280;11783;50.350;6.576;2024-02-28T05:56:09;96596.31;;;-1.49;100.00
23229;BME280;11783;50.350;6.576;2024-02-28T05:58:43;96598.75;;;-1.56;100.00
23229;BME280;11783;50.350;6.576;2024-02-28T06:01:14;96607.88;;;-1.52;100.00
23229;BME280;11783;50.350;6.576;2024-02-28T06:03:40;96607.41;;;-1.55;100.00
23229;BME280;11783;50.350;6.576;2024-02-28T06:06:06;96609.34;;;-1.57;100.00
23229;BME280;11783;50.350;6.576;2024-02-28T06:08:38;96612.91;;;-1.66;100.00
23229;BME280;11783;50.350;6.576;2024-02-28T06:11:04;96613.19;;;-1.77;100.00
23229;BME280;11783;50.350;6.576;2024-02-28T06:13:30;96620.38;;;-1.71;100.00
23229;BME280;11783;50.350;6.576;2024-02-28T06:15:56;96623.59;;;-1.86;100.00
23229;BME280;11783;50.350;6.576;2024-02-28T06:18:22;96626.31;;;-1.87;100.00
23229;BME280;11783;50.350;6.576;2024-02-28T06:20:53;96625.34;;;-1.86;100.00
23229;BME280;11783;50.350;6.576;2024-02-28T06:23:18;96625.56;;;-1.79;100.00
23229;BME280;11783;50.350;6.576;2024-02-28T06:25:44;96635.25;;;-1.90;100.00
23229;BME280;11783;50.350;6.576;2024-02-28T06:28:09;96632.91;;;-1.75;100.00
23229;BME280;11783;50.350;6.576;2024-02-28T06:30:35;96632.56;;;-1.72;100.00
23229;BME280;11783;50.350;6.576;2024-02-28T06:33:01;96630.94;;;-1.81;100.00
23229;BME280;11783;50.350;6.576;2024-02-28T06:35:27;96632.97;;;-1.93;100.00
23229;BME280;11783;50.350;6.576;2024-02-28T06:37:52;96636.63;;;-1.86;100.00
23229;BME280;11783;50.350;6.576;2024-02-28T06:40:17;96638.91;;;-1.83;100.00
23229;BME280;11783;50.350;6.576;2024-02-28T06:42:43;96637.44;;;-1.85;100.00
23229;BME280;11783;50.350;6.576;2024-02-28T06:45:09;96656.09;;;-1.90;100.00
23229;BME280;11783;50.350;6.576;2024-02-28T06:47:35;96646.81;;;-1.92;100.00
23229;BME280;11783;50.350;6.576;2024-02-28T06:50:05;96653.47;;;-1.98;100.00
23229;BME280;11783;50.350;6.576;2024-02-28T06:52:31;96654.78;;;-1.94;100.00
23229;BME280;11783;50.350;6.576;2024-02-28T06:54:56;96653.28;;;-2.04;100.00
23229;BME280;11783;50.350;6.576;2024-02-28T06:57:22;96650.09;;;-2.16;100.00
23229;BME280;11783;50.350;6.576;2024-02-28T06:59:47;96649.63;;;-2.11;100.00
23229;BME280;11783;50.350;6.576;2024-02-28T07:02:13;96652.25;;;-2.11;100.00
23229;BME280;11783;50.350;6.576;2024-02-28T07:04:39;96653.22;;;-2.13;100.00
23229;BME280;11783;50.350;6.576;2024-02-28T07:07:06;96645.91;;;-2.09;100.00
23229;BME280;11783;50.350;6.576;2024-02-28T07:09:31;96650.81;;;-2.06;100.00
23229;BME280;11783;50.350;6.576;2024-02-28T07:11:58;96646.94;;;-2.02;100.00
23229;BME280;11783;50.350;6.576;2024-02-28T07:14:23;96647.44;;;-1.98;100.00
23229;BME280;11783;50.350;6.576;2024-02-28T07:16:49;96651.53;;;-1.96;100.00
23229;BME280;11783;50.350;6.576;2024-02-28T07:19:14;96643.22;;;-1.99;100.00
23229;BME280;11783;50.350;6.576;2024-02-28T07:21:40;96651.53;;;-1.96;100.00
23229;BME280;11783;50.350;6.576;2024-02-28T07:24:06;96652.91;;;-1.84;100.00
23229;BME280;11783;50.350;6.576;2024-02-28T07:26:31;96657.63;;;-1.79;100.00
23229;BME280;11783;50.350;6.576;2024-02-28T07:28:57;96662.69;;;-1.77;100.00
23229;BME280;11783;50.350;6.576;2024-02-28T07:31:22;96655.69;;;-1.77;100.00
23229;BME280;11783;50.350;6.576;2024-02-28T07:33:48;96664.81;;;-1.73;100.00
23229;BME280;11783;50.350;6.576;2024-02-28T07:36:13;96672.94;;;-1.76;100.00
23229;BME280;11783;50.350;6.576;2024-02-28T07:38:41;96671.16;;;-1.75;100.00
23229;BME280;11783;50.350;6.576;2024-02-28T07:41:06;96674.66;;;-1.59;100.00
23229;BME280;11783;50.350;6.576;2024-02-28T07:43:32;96672.88;;;-1.58;100.00
23229;BME280;11783;50.350;6.576;2024-02-28T07:46:02;96679.13;;;-1.77;100.00
23229;BME280;11783;50.350;6.576;2024-02-28T07:48:28;96674.03;;;-1.87;100.00
23229;BME280;11783;50.350;6.576;2024-02-28T07:50:53;96679.97;;;-1.68;100.00
23229;BME280;11783;50.350;6.576;2024-02-28T07:53:19;96680.94;;;-1.43;100.00
23229;BME280;11783;50.350;6.576;2024-02-28T07:55:44;96688.75;;;-1.35;100.00
23229;BME280;11783;50.350;6.576;2024-02-28T07:58:10;96693.97;;;-1.35;100.00
23229;BME280;11783;50.350;6.576;2024-02-28T08:00:35;96698.44;;;-1.28;100.00
23229;BME280;11783;50.350;6.576;2024-02-28T08:03:01;96695.50;;;-1.25;100.00
23229;BME280;11783;50.350;6.576;2024-02-28T08:05:27;96690.44;;;-1.18;100.00
23229;BME280;11783;50.350;6.576;2024-02-28T08:07:52;96686.75;;;-0.99;100.00
23229;BME280;11783;50.350;6.576;2024-02-28T08:10:18;96687.28;;;-0.87;100.00
23229;BME280;11783;50.350;6.576;2024-02-28T08:12:43;96687.28;;;-0.87;100.00
23229;BME280;11783;50.350;6.576;2024-02-28T08:15:09;96697.75;;;-0.71;100.00
23229;BME280;11783;50.350;6.576;2024-02-28T08:17:34;96697.78;;;-0.55;100.00
23229;BME280;11783;50.350;6.576;2024-02-28T08:20:00;96684.88;;;-0.32;100.00
23229;BME280;11783;50.350;6.576;2024-02-28T08:22:26;96690.91;;;-0.07;100.00
23229;BME280;11783;50.350;6.576;2024-02-28T08:24:52;96694.09;;;0.27;100.00
23229;BME280;11783;50.350;6.576;2024-02-28T08:27:17;96696.81;;;0.58;100.00
23229;BME280;11783;50.350;6.576;2024-02-28T08:29:42;96702.38;;;0.86;100.00
23229;BME280;11783;50.350;6.576;2024-02-28T08:32:10;96696.53;;;1.15;100.00
23229;BME280;11783;50.350;6.576;2024-02-28T08:34:37;96695.34;;;1.49;100.00
23229;BME280;11783;50.350;6.576;2024-02-28T08:37:02;96693.81;;;1.77;100.00
23229;BME280;11783;50.350;6.576;2024-02-28T08:39:28;96697.19;;;2.01;100.00
23229;BME280;11783;50.350;6.576;2024-02-28T08:41:53;96698.50;;;2.20;100.00
23229;BME280;11783;50.350;6.576;2024-02-28T08:44:18;96705.13;;;2.30;100.00
23229;BME280;11783;50.350;6.576;2024-02-28T08:46:46;96708.38;;;2.32;100.00
23229;BME280;11783;50.350;6.576;2024-02-28T08:49:13;96705.19;;;2.22;100.00
23229;BME280;11783;50.350;6.576;2024-02-28T08:51:38;96711.69;;;2.11;100.00
23229;BME280;11783;50.350;6.576;2024-02-28T08:54:05;96706.50;;;2.03;100.00
23229;BME280;11783;50.350;6.576;2024-02-28T08:56:30;96707.22;;;1.97;100.00
23229;BME280;11783;50.350;6.576;2024-02-28T08:58:56;96702.44;;;2.01;100.00
23229;BME280;11783;50.350;6.576;2024-02-28T09:01:21;96704.63;;;1.74;100.00
23229;BME280;11783;50.350;6.576;2024-02-28T09:03:47;96701.25;;;1.66;100.00
23229;BME280;11783;50.350;6.576;2024-02-28T09:06:12;96706.22;;;1.61;100.00
23229;BME280;11783;50.350;6.576;2024-02-28T09:08:38;96708.78;;;1.69;100.00
23229;BME280;11783;50.350;6.576;2024-02-28T09:11:03;96704.91;;;1.79;100.00
23229;BME280;11783;50.350;6.576;2024-02-28T09:13:30;96707.16;;;1.68;100.00
23229;BME280;11783;50.350;6.576;2024-02-28T09:15:55;96703.66;;;1.75;100.00
23229;BME280;11783;50.350;6.576;2024-02-28T09:18:21;96697.69;;;1.81;100.00
23229;BME280;11783;50.350;6.576;2024-02-28T09:20:47;96709.22;;;1.95;100.00
23229;BME280;11783;50.350;6.576;2024-02-28T09:23:13;96719.09;;;1.85;100.00
23229;BME280;11783;50.350;6.576;2024-02-28T09:25:39;96713.41;;;1.81;100.00
23229;BME280;11783;50.350;6.576;2024-02-28T09:28:05;96724.84;;;1.89;100.00
23229;BME280;11783;50.350;6.576;2024-02-28T09:30:31;96728.16;;;2.05;100.00
23229;BME280;11783;50.350;6.576;2024-02-28T09:32:56;96737.31;;;2.39;100.00
23229;BME280;11783;50.350;6.576;2024-02-28T09:35:22;96735.16;;;2.57;100.00
23229;BME280;11783;50.350;6.576;2024-02-28T09:37:47;96730.03;;;2.64;100.00
23229;BME280;11783;50.350;6.576;2024-02-28T09:40:12;96736.63;;;2.74;100.00
23229;BME280;11783;50.350;6.576;2024-02-28T09:42:38;96739.34;;;2.81;100.00
23229;BME280;11783;50.350;6.576;2024-02-28T09:45:04;96740.16;;;2.82;100.00
23229;BME280;11783;50.350;6.576;2024-02-28T09:47:33;96745.41;;;2.82;100.00
23229;BME280;11783;50.350;6.576;2024-02-28T09:50:00;96741.16;;;2.81;100.00
23229;BME280;11783;50.350;6.576;2024-02-28T09:52:26;96749.56;;;2.76;100.00
23229;BME280;11783;50.350;6.576;2024-02-28T09:54:53;96751.72;;;2.87;100.00
23229;BME280;11783;50.350;6.576;2024-02-28T09:57:18;96740.22;;;2.73;100.00
23229;BME280;11783;50.350;6.576;2024-02-28T09:59:44;96750.56;;;2.90;100.00
23229;BME280;11783;50.350;6.576;2024-02-28T10:02:10;96748.38;;;3.08;100.00
23229;BME280;11783;50.350;6.576;2024-02-28T10:04:37;96745.91;;;3.21;100.00
23229;BME280;11783;50.350;6.576;2024-02-28T10:07:15;96749.50;;;3.35;100.00
23229;BME280;11783;50.350;6.576;2024-02-28T10:09:41;96745.19;;;3.49;100.00
23229;BME280;11783;50.350;6.576;2024-02-28T10:12:06;96741.28;;;3.59;100.00
23229;BME280;11783;50.350;6.576;2024-02-28T10:14:32;96749.84;;;3.68;100.00
23229;BME280;11783;50.350;6.576;2024-02-28T10:16:57;96752.13;;;3.92;100.00
23229;BME280;11783;50.350;6.576;2024-02-28T10:19:23;96746.69;;;4.22;100.00
23229;BME280;11783;50.350;6.576;2024-02-28T10:21:49;96739.94;;;4.34;100.00
23229;BME280;11783;50.350;6.576;2024-02-28T10:24:15;96731.69;;;4.44;100.00
23229;BME280;11783;50.350;6.576;2024-02-28T10:26:46;96730.97;;;4.56;100.00
23229;BME280;11783;50.350;6.576;2024-02-28T10:29:20;96732.06;;;4.69;100.00
23229;BME280;11783;50.350;6.576;2024-02-28T10:31:46;96726.03;;;4.81;100.00
23229;BME280;11783;50.350;6.576;2024-02-28T10:34:13;96726.91;;;4.89;100.00
23229;BME280;11783;50.350;6.576;2024-02-28T10:36:41;96720.06;;;5.01;100.00
23229;BME280;11783;50.350;6.576;2024-02-28T10:39:06;96725.00;;;5.17;100.00
23229;BME280;11783;50.350;6.576;2024-02-28T10:41:35;96731.94;;;5.31;100.00
23229;BME280;11783;50.350;6.576;2024-02-28T10:44:02;96732.78;;;5.38;100.00
23229;BME280;11783;50.350;6.576;2024-02-28T10:46:28;96726.69;;;5.38;100.00
23229;BME280;11783;50.350;6.576;2024-02-28T10:48:54;96726.34;;;5.47;100.00
23229;BME280;11783;50.350;6.576;2024-02-28T10:51:24;96724.72;;;5.53;100.00
23229;BME280;11783;50.350;6.576;2024-02-28T10:54:11;96718.84;;;5.58;100.00
23229;BME280;11783;50.350;6.576;2024-02-28T10:56:37;96724.34;;;5.69;100.00
23229;BME280;11783;50.350;6.576;2024-02-28T10:59:06;96720.91;;;5.75;100.00
23229;BME280;11783;50.350;6.576;2024-02-28T11:01:36;96729.88;;;5.88;100.00
23229;BME280;11783;50.350;6.576;2024-02-28T11:04:03;96724.84;;;5.99;100.00
23229;BME280;11783;50.350;6.576;2024-02-28T11:06:29;96723.81;;;6.07;100.00
23229;BME280;11783;50.350;6.576;2024-02-28T11:08:55;96723.03;;;6.00;100.00
23229;BME280;11783;50.350;6.576;2024-02-28T11:11:22;96723.00;;;6.13;100.00
23229;BME280;11783;50.350;6.576;2024-02-28T11:13:54;96713.09;;;6.15;100.00
23229;BME280;11783;50.350;6.576;2024-02-28T11:16:27;96721.19;;;6.27;100.00
23229;BME280;11783;50.350;6.576;2024-02-28T11:18:53;96720.19;;;6.34;100.00
23229;BME280;11783;50.350;6.576;2024-02-28T11:21:18;96715.31;;;6.51;100.00
23229;BME280;11783;50.350;6.576;2024-02-28T11:23:47;96709.75;;;6.66;100.00
23229;BME280;11783;50.350;6.576;2024-02-28T11:26:13;96702.88;;;6.72;100.00
23229;BME280;11783;50.350;6.576;2024-02-28T11:28:39;96707.88;;;6.86;100.00
23229;BME280;11783;50.350;6.576;2024-02-28T11:31:05;96698.75;;;6.89;100.00
23229;BME280;11783;50.350;6.576;2024-02-28T11:33:30;96704.19;;;7.01;100.00
23229;BME280;11783;50.350;6.576;2024-02-28T11:35:58;96701.38;;;6.95;100.00
23229;BME280;11783;50.350;6.576;2024-02-28T11:38:25;96695.25;;;7.08;100.00
23229;BME280;11783;50.350;6.576;2024-02-28T11:40:50;96701.09;;;7.17;100.00
23229;BME280;11783;50.350;6.576;2024-02-28T11:43:16;96694.94;;;7.23;100.00
23229;BME280;11783;50.350;6.576;2024-02-28T11:45:43;96685.78;;;7.32;100.00
23229;BME280;11783;50.350;6.576;2024-02-28T11:48:08;96685.94;;;7.37;100.00
23229;BME280;11783;50.350;6.576;2024-02-28T11:50:34;96685.25;;;7.55;100.00
23229;BME280;11783;50.350;6.576;2024-02-28T11:52:59;96690.31;;;7.56;100.00
23229;BME280;11783;50.350;6.576;2024-02-28T11:55:27;96681.72;;;7.68;100.00
23229;BME280;11783;50.350;6.576;2024-02-28T11:57:52;96679.28;;;7.66;100.00
23229;BME280;11783;50.350;6.576;2024-02-28T12:00:18;96672.00;;;7.55;100.00
23229;BME280;11783;50.350;6.576;2024-02-28T12:02:43;96668.25;;;7.69;100.00
23229;BME280;11783;50.350;6.576;2024-02-28T12:05:09;96666.88;;;7.60;100.00
23229;BME280;11783;50.350;6.576;2024-02-28T12:07:34;96662.75;;;7.71;100.00
23229;BME280;11783;50.350;6.576;2024-02-28T12:10:00;96670.44;;;7.79;100.00
23229;BME280;11783;50.350;6.576;2024-02-28T12:12:28;96663.66;;;7.89;100.00
23229;BME280;11783;50.350;6.576;2024-02-28T12:14:58;96658.47;;;8.01;100.00
23229;BME280;11783;50.350;6.576;2024-02-28T12:17:25;96642.91;;;8.11;100.00
23229;BME280;11783;50.350;6.576;2024-02-28T12:19:51;96638.53;;;8.24;100.00
23229;BME280;11783;50.350;6.576;2024-02-28T12:22:16;96644.53;;;8.37;100.00
23229;BME280;11783;50.350;6.576;2024-02-28T12:24:41;96638.44;;;8.30;100.00
23229;BME280;11783;50.350;6.576;2024-02-28T12:27:07;96635.34;;;8.40;100.00
23229;BME280;11783;50.350;6.576;2024-02-28T12:29:32;96640.81;;;8.63;100.00
23229;BME280;11783;50.350;6.576;2024-02-28T12:31:57;96633.53;;;8.77;100.00
23229;BME280;11783;50.350;6.576;2024-02-28T12:34:23;96634.97;;;8.91;100.00
23229;BME280;11783;50.350;6.576;2024-02-28T12:36:48;96625.47;;;9.02;100.00
23229;BME280;11783;50.350;6.576;2024-02-28T12:39:13;96616.16;;;8.81;100.00
23229;BME280;11783;50.350;6.576;2024-02-28T12:41:39;96625.03;;;9.05;100.00
23229;BME280;11783;50.350;6.576;2024-02-28T12:44:05;96628.78;;;9.16;100.00
23229;BME280;11783;50.350;6.576;2024-02-28T12:46:31;96627.16;;;9.15;100.00
23229;BME280;11783;50.350;6.576;2024-02-28T12:48:56;96621.94;;;9.38;100.00